sensor_id;sensor_type;location;lat;lon;timestamp;P1;durP1;ratioP1;P2;durP2;ratioP2
29246;SDS011;16272;48.188;9.964;2023-07-30T00:01:36;6.67;;;2.60;;
29246;SDS011;16272;48.188;9.964;2023-07-30T00:04:02;7.00;;;2.80;;
29246;SDS011;16272;48.188;9.964;2023-07-30T00:06:27;6.40;;;2.47;;
29246;SDS011;16272;48.188;9.964;2023-07-30T00:08:52;6.60;;;2.23;;
29246;SDS011;16272;48.188;9.964;2023-07-30T00:11:18;6.47;;;2.87;;
29246;SDS011;16272;48.188;9.964;2023-07-30T00:13:43;6.47;;;2.47;;
29246;SDS011;16272;48.188;9.964;2023-07-30T00:16:08;6.90;;;2.03;;
29246;SDS011;16272;48.188;9.964;2023-07-30T00:18:34;6.40;;;2.08;;
29246;SDS011;16272;48.188;9.964;2023-07-30T00:20:59;7.00;;;2.23;;
29246;SDS011;16272;48.188;9.964;2023-07-30T00:23:24;6.33;;;2.33;;
29246;SDS011;16272;48.188;9.964;2023-07-30T00:25:49;6.80;;;2.63;;
29246;SDS011;16272;48.188;9.964;2023-07-30T00:28:15;7.07;;;2.73;;
29246;SDS011;16272;48.188;9.964;2023-07-30T00:30:40;6.90;;;2.37;;
29246;SDS011;16272;48.188;9.964;2023-07-30T00:33:05;6.87;;;2.10;;
29246;SDS011;16272;48.188;9.964;2023-07-30T00:35:31;6.73;;;2.60;;
29246;SDS011;16272;48.188;9.964;2023-07-30T00:37:56;6.57;;;2.60;;
29246;SDS011;16272;48.188;9.964;2023-07-30T00:40:21;7.50;;;2.67;;
29246;SDS011;16272;48.188;9.964;2023-07-30T00:42:46;7.50;;;2.43;;
29246;SDS011;16272;48.188;9.964;2023-07-30T00:45:12;6.40;;;2.40;;
29246;SDS011;16272;48.188;9.964;2023-07-30T00:47:37;7.67;;;2.47;;
29246;SDS011;16272;48.188;9.964;2023-07-30T00:50:04;6.85;;;2.70;;
29246;SDS011;16272;48.188;9.964;2023-07-30T00:52:30;7.78;;;2.70;;
29246;SDS011;16272;48.188;9.964;2023-07-30T00:54:57;6.97;;;2.67;;
29246;SDS011;16272;48.188;9.964;2023-07-30T00:57:24;8.43;;;2.60;;
29246;SDS011;16272;48.188;9.964;2023-07-30T00:59:50;7.15;;;2.80;;
29246;SDS011;16272;48.188;9.964;2023-07-30T01:02:16;7.45;;;2.63;;
29246;SDS011;16272;48.188;9.964;2023-07-30T01:04:42;7.00;;;2.47;;
29246;SDS011;16272;48.188;9.964;2023-07-30T01:07:08;7.03;;;2.60;;
29246;SDS011;16272;48.188;9.964;2023-07-30T01:09:34;8.27;;;2.70;;
29246;SDS011;16272;48.188;9.964;2023-07-30T01:12:00;7.53;;;2.85;;
29246;SDS011;16272;48.188;9.964;2023-07-30T01:14:27;8.32;;;2.92;;
29246;SDS011;16272;48.188;9.964;2023-07-30T01:16:52;7.85;;;3.08;;
29246;SDS011;16272;48.188;9.964;2023-07-30T01:19:18;8.80;;;2.90;;
29246;SDS011;16272;48.188;9.964;2023-07-30T01:21:43;7.43;;;3.10;;
29246;SDS011;16272;48.188;9.964;2023-07-30T01:24:09;8.17;;;3.07;;
29246;SDS011;16272;48.188;9.964;2023-07-30T01:26:35;7.43;;;2.92;;
29246;SDS011;16272;48.188;9.964;2023-07-30T01:29:10;8.13;;;3.00;;
29246;SDS011;16272;48.188;9.964;2023-07-30T01:31:40;8.88;;;2.95;;
29246;SDS011;16272;48.188;9.964;2023-07-30T01:34:06;7.72;;;3.28;;
29246;SDS011;16272;48.188;9.964;2023-07-30T01:36:34;7.43;;;2.92;;
29246;SDS011;16272;48.188;9.964;2023-07-30T01:39:00;6.72;;;2.67;;
29246;SDS011;16272;48.188;9.964;2023-07-30T01:41:26;7.10;;;3.10;;
29246;SDS011;16272;48.188;9.964;2023-07-30T01:43:51;7.50;;;3.17;;
29246;SDS011;16272;48.188;9.964;2023-07-30T01:46:17;7.83;;;2.73;;
29246;SDS011;16272;48.188;9.964;2023-07-30T01:48:42;6.90;;;2.60;;
29246;SDS011;16272;48.188;9.964;2023-07-30T01:51:07;8.03;;;2.90;;
29246;SDS011;16272;48.188;9.964;2023-07-30T01:53:33;7.23;;;2.77;;
29246;SDS011;16272;48.188;9.964;2023-07-30T01:55:58;8.53;;;2.83;;
29246;SDS011;16272;48.188;9.964;2023-07-30T01:58:23;7.43;;;2.80;;
29246;SDS011;16272;48.188;9.964;2023-07-30T02:00:48;6.83;;;2.50;;
29246;SDS011;16272;48.188;9.964;2023-07-30T02:03:14;7.33;;;2.97;;
29246;SDS011;16272;48.188;9.964;2023-07-30T02:05:39;6.87;;;2.53;;
29246;SDS011;16272;48.188;9.964;2023-07-30T02:08:04;7.68;;;2.53;;
29246;SDS011;16272;48.188;9.964;2023-07-30T02:10:30;7.47;;;2.93;;
29246;SDS011;16272;48.188;9.964;2023-07-30T02:12:55;7.40;;;2.60;;
29246;SDS011;16272;48.188;9.964;2023-07-30T02:15:20;6.93;;;2.70;;
29246;SDS011;16272;48.188;9.964;2023-07-30T02:17:45;6.50;;;2.33;;
29246;SDS011;16272;48.188;9.964;2023-07-30T02:20:11;6.77;;;2.80;;
29246;SDS011;16272;48.188;9.964;2023-07-30T02:22:36;6.67;;;2.70;;
29246;SDS011;16272;48.188;9.964;2023-07-30T02:25:01;7.27;;;2.63;;
29246;SDS011;16272;48.188;9.964;2023-07-30T02:27:27;6.30;;;2.50;;
29246;SDS011;16272;48.188;9.964;2023-07-30T02:29:52;8.50;;;2.53;;
29246;SDS011;16272;48.188;9.964;2023-07-30T02:32:17;6.77;;;2.90;;
29246;SDS011;16272;48.188;9.964;2023-07-30T02:34:42;7.10;;;2.40;;
29246;SDS011;16272;48.188;9.964;2023-07-30T02:37:08;6.70;;;2.57;;
29246;SDS011;16272;48.188;9.964;2023-07-30T02:39:33;6.33;;;2.60;;
29246;SDS011;16272;48.188;9.964;2023-07-30T02:41:58;6.87;;;2.53;;
29246;SDS011;16272;48.188;9.964;2023-07-30T02:44:24;7.37;;;2.50;;
29246;SDS011;16272;48.188;9.964;2023-07-30T02:46:49;6.33;;;2.40;;
29246;SDS011;16272;48.188;9.964;2023-07-30T02:49:14;7.20;;;2.77;;
29246;SDS011;16272;48.188;9.964;2023-07-30T02:51:39;7.57;;;2.40;;
29246;SDS011;16272;48.188;9.964;2023-07-30T02:54:05;6.72;;;2.50;;
29246;SDS011;16272;48.188;9.964;2023-07-30T02:56:32;7.60;;;2.63;;
29246;SDS011;16272;48.188;9.964;2023-07-30T02:58:58;6.10;;;2.17;;
29246;SDS011;16272;48.188;9.964;2023-07-30T03:01:24;7.40;;;2.60;;
29246;SDS011;16272;48.188;9.964;2023-07-30T03:03:49;8.18;;;2.55;;
29246;SDS011;16272;48.188;9.964;2023-07-30T03:06:14;7.83;;;3.17;;
29246;SDS011;16272;48.188;9.964;2023-07-30T03:08:41;9.00;;;2.60;;
29246;SDS011;16272;48.188;9.964;2023-07-30T03:11:07;7.93;;;2.70;;
29246;SDS011;16272;48.188;9.964;2023-07-30T03:13:33;7.90;;;3.40;;
29246;SDS011;16272;48.188;9.964;2023-07-30T03:15:58;6.70;;;2.50;;
29246;SDS011;16272;48.188;9.964;2023-07-30T03:18:23;8.33;;;2.67;;
29246;SDS011;16272;48.188;9.964;2023-07-30T03:20:49;7.60;;;2.80;;
29246;SDS011;16272;48.188;9.964;2023-07-30T03:23:14;9.93;;;3.13;;
29246;SDS011;16272;48.188;9.964;2023-07-30T03:25:39;8.33;;;3.00;;
29246;SDS011;16272;48.188;9.964;2023-07-30T03:28:05;7.67;;;3.00;;
29246;SDS011;16272;48.188;9.964;2023-07-30T03:30:30;7.30;;;3.00;;
29246;SDS011;16272;48.188;9.964;2023-07-30T03:32:55;7.13;;;2.70;;
29246;SDS011;16272;48.188;9.964;2023-07-30T03:35:20;7.70;;;2.83;;
29246;SDS011;16272;48.188;9.964;2023-07-30T03:37:46;7.90;;;2.80;;
29246;SDS011;16272;48.188;9.964;2023-07-30T03:40:11;7.00;;;2.70;;
29246;SDS011;16272;48.188;9.964;2023-07-30T03:42:36;7.57;;;2.90;;
29246;SDS011;16272;48.188;9.964;2023-07-30T03:45:02;9.33;;;2.77;;
29246;SDS011;16272;48.188;9.964;2023-07-30T03:47:27;6.97;;;2.83;;
29246;SDS011;16272;48.188;9.964;2023-07-30T03:49:53;7.90;;;3.17;;
29246;SDS011;16272;48.188;9.964;2023-07-30T03:52:18;7.43;;;2.93;;
29246;SDS011;16272;48.188;9.964;2023-07-30T03:54:43;9.07;;;3.20;;
29246;SDS011;16272;48.188;9.964;2023-07-30T03:57:08;7.80;;;2.70;;
29246;SDS011;16272;48.188;9.964;2023-07-30T03:59:34;6.30;;;2.40;;
29246;SDS011;16272;48.188;9.964;2023-07-30T04:01:59;8.67;;;3.03;;
29246;SDS011;16272;48.188;9.964;2023-07-30T04:04:24;8.23;;;3.17;;
29246;SDS011;16272;48.188;9.964;2023-07-30T04:06:50;7.40;;;3.03;;
29246;SDS011;16272;48.188;9.964;2023-07-30T04:09:15;6.77;;;2.80;;
29246;SDS011;16272;48.188;9.964;2023-07-30T04:11:40;7.50;;;2.87;;
29246;SDS011;16272;48.188;9.964;2023-07-30T04:14:05;7.20;;;3.00;;
29246;SDS011;16272;48.188;9.964;2023-07-30T04:16:33;7.10;;;2.90;;
29246;SDS011;16272;48.188;9.964;2023-07-30T04:18:58;6.70;;;2.63;;
29246;SDS011;16272;48.188;9.964;2023-07-30T04:21:23;9.32;;;2.92;;
29246;SDS011;16272;48.188;9.964;2023-07-30T04:23:49;8.47;;;3.23;;
29246;SDS011;16272;48.188;9.964;2023-07-30T04:26:14;7.20;;;2.90;;
29246;SDS011;16272;48.188;9.964;2023-07-30T04:28:40;7.23;;;3.20;;
29246;SDS011;16272;48.188;9.964;2023-07-30T04:31:06;7.30;;;3.20;;
29246;SDS011;16272;48.188;9.964;2023-07-30T04:33:31;7.50;;;2.80;;
29246;SDS011;16272;48.188;9.964;2023-07-30T04:35:56;7.33;;;3.00;;
29246;SDS011;16272;48.188;9.964;2023-07-30T04:38:22;8.10;;;2.77;;
29246;SDS011;16272;48.188;9.964;2023-07-30T04:40:48;7.32;;;2.95;;
29246;SDS011;16272;48.188;9.964;2023-07-30T04:43:13;9.00;;;2.70;;
29246;SDS011;16272;48.188;9.964;2023-07-30T04:45:39;6.57;;;2.80;;
29246;SDS011;16272;48.188;9.964;2023-07-30T04:48:05;8.63;;;3.10;;
29246;SDS011;16272;48.188;9.964;2023-07-30T04:50:30;6.63;;;2.37;;
29246;SDS011;16272;48.188;9.964;2023-07-30T04:52:56;7.95;;;2.70;;
29246;SDS011;16272;48.188;9.964;2023-07-30T04:55:22;7.50;;;3.07;;
29246;SDS011;16272;48.188;9.964;2023-07-30T04:57:47;6.50;;;2.67;;
29246;SDS011;16272;48.188;9.964;2023-07-30T05:00:12;8.38;;;2.95;;
29246;SDS011;16272;48.188;9.964;2023-07-30T05:02:38;6.43;;;2.50;;
29246;SDS011;16272;48.188;9.964;2023-07-30T05:05:03;7.43;;;2.90;;
29246;SDS011;16272;48.188;9.964;2023-07-30T05:07:29;7.43;;;2.73;;
29246;SDS011;16272;48.188;9.964;2023-07-30T05:09:54;7.57;;;3.23;;
29246;SDS011;16272;48.188;9.964;2023-07-30T05:12:19;7.30;;;2.93;;
29246;SDS011;16272;48.188;9.964;2023-07-30T05:14:44;6.80;;;2.70;;
29246;SDS011;16272;48.188;9.964;2023-07-30T05:17:10;8.10;;;2.50;;
29246;SDS011;16272;48.188;9.964;2023-07-30T05:19:35;7.37;;;2.93;;
29246;SDS011;16272;48.188;9.964;2023-07-30T05:22:00;6.93;;;2.90;;
29246;SDS011;16272;48.188;9.964;2023-07-30T05:24:26;7.68;;;2.90;;
29246;SDS011;16272;48.188;9.964;2023-07-30T05:26:52;6.93;;;2.83;;
29246;SDS011;16272;48.188;9.964;2023-07-30T05:29:17;8.00;;;2.83;;
29246;SDS011;16272;48.188;9.964;2023-07-30T05:31:42;7.47;;;2.80;;
29246;SDS011;16272;48.188;9.964;2023-07-30T05:34:08;8.10;;;2.97;;
29246;SDS011;16272;48.188;9.964;2023-07-30T05:36:33;6.70;;;2.80;;
29246;SDS011;16272;48.188;9.964;2023-07-30T05:38:58;6.87;;;2.63;;
29246;SDS011;16272;48.188;9.964;2023-07-30T05:41:24;7.77;;;2.73;;
29246;SDS011;16272;48.188;9.964;2023-07-30T05:43:49;6.40;;;2.70;;
29246;SDS011;16272;48.188;9.964;2023-07-30T05:46:15;6.67;;;2.47;;
29246;SDS011;16272;48.188;9.964;2023-07-30T05:48:40;6.83;;;2.83;;
29246;SDS011;16272;48.188;9.964;2023-07-30T05:51:05;6.40;;;2.43;;
29246;SDS011;16272;48.188;9.964;2023-07-30T05:53:30;6.50;;;2.53;;
29246;SDS011;16272;48.188;9.964;2023-07-30T05:55:56;9.00;;;2.50;;
29246;SDS011;16272;48.188;9.964;2023-07-30T05:58:21;8.33;;;3.17;;
29246;SDS011;16272;48.188;9.964;2023-07-30T06:00:46;6.67;;;3.07;;
29246;SDS011;16272;48.188;9.964;2023-07-30T06:03:12;6.30;;;2.63;;
29246;SDS011;16272;48.188;9.964;2023-07-30T06:05:41;7.80;;;2.57;;
29246;SDS011;16272;48.188;9.964;2023-07-30T06:08:07;6.45;;;2.80;;
29246;SDS011;16272;48.188;9.964;2023-07-30T06:10:35;6.80;;;2.83;;
29246;SDS011;16272;48.188;9.964;2023-07-30T06:13:02;6.30;;;2.53;;
29246;SDS011;16272;48.188;9.964;2023-07-30T06:15:28;6.57;;;2.22;;
29246;SDS011;16272;48.188;9.964;2023-07-30T06:17:54;6.57;;;2.80;;
29246;SDS011;16272;48.188;9.964;2023-07-30T06:20:19;7.20;;;2.40;;
29246;SDS011;16272;48.188;9.964;2023-07-30T06:22:44;6.70;;;2.60;;
29246;SDS011;16272;48.188;9.964;2023-07-30T06:25:10;6.90;;;2.63;;
29246;SDS011;16272;48.188;9.964;2023-07-30T06:27:35;7.20;;;2.60;;
29246;SDS011;16272;48.188;9.964;2023-07-30T06:30:00;6.83;;;2.50;;
29246;SDS011;16272;48.188;9.964;2023-07-30T06:32:26;7.15;;;2.35;;
29246;SDS011;16272;48.188;9.964;2023-07-30T06:34:51;6.07;;;2.43;;
29246;SDS011;16272;48.188;9.964;2023-07-30T06:37:16;6.70;;;3.00;;
29246;SDS011;16272;48.188;9.964;2023-07-30T06:39:42;6.53;;;2.30;;
29246;SDS011;16272;48.188;9.964;2023-07-30T06:42:07;6.67;;;3.00;;
29246;SDS011;16272;48.188;9.964;2023-07-30T06:44:33;6.35;;;2.30;;
29246;SDS011;16272;48.188;9.964;2023-07-30T06:46:59;7.50;;;2.53;;
29246;SDS011;16272;48.188;9.964;2023-07-30T06:49:24;6.33;;;2.40;;
29246;SDS011;16272;48.188;9.964;2023-07-30T06:51:49;5.90;;;2.17;;
29246;SDS011;16272;48.188;9.964;2023-07-30T06:54:15;6.33;;;2.33;;
29246;SDS011;16272;48.188;9.964;2023-07-30T06:56:40;6.43;;;2.50;;
29246;SDS011;16272;48.188;9.964;2023-07-30T06:59:05;5.80;;;2.27;;
29246;SDS011;16272;48.188;9.964;2023-07-30T07:01:31;6.13;;;2.57;;
29246;SDS011;16272;48.188;9.964;2023-07-30T07:03:56;7.17;;;2.60;;
29246;SDS011;16272;48.188;9.964;2023-07-30T07:06:21;6.23;;;2.50;;
29246;SDS011;16272;48.188;9.964;2023-07-30T07:08:46;6.57;;;2.30;;
29246;SDS011;16272;48.188;9.964;2023-07-30T07:11:12;8.10;;;2.40;;
29246;SDS011;16272;48.188;9.964;2023-07-30T07:13:37;6.90;;;2.25;;
29246;SDS011;16272;48.188;9.964;2023-07-30T07:16:02;5.93;;;2.40;;
29246;SDS011;16272;48.188;9.964;2023-07-30T07:18:28;5.70;;;2.10;;
29246;SDS011;16272;48.188;9.964;2023-07-30T07:20:54;6.90;;;2.50;;
29246;SDS011;16272;48.188;9.964;2023-07-30T07:23:19;5.60;;;2.23;;
29246;SDS011;16272;48.188;9.964;2023-07-30T07:25:44;6.73;;;2.20;;
29246;SDS011;16272;48.188;9.964;2023-07-30T07:28:10;6.80;;;2.27;;
29246;SDS011;16272;48.188;9.964;2023-07-30T07:30:35;6.23;;;2.50;;
29246;SDS011;16272;48.188;9.964;2023-07-30T07:33:04;5.88;;;2.35;;
29246;SDS011;16272;48.188;9.964;2023-07-30T07:35:30;5.60;;;2.00;;
29246;SDS011;16272;48.188;9.964;2023-07-30T07:37:56;5.30;;;2.00;;
29246;SDS011;16272;48.188;9.964;2023-07-30T07:40:22;6.07;;;2.47;;
29246;SDS011;16272;48.188;9.964;2023-07-30T07:42:47;6.10;;;2.13;;
29246;SDS011;16272;48.188;9.964;2023-07-30T07:45:12;5.73;;;1.93;;
29246;SDS011;16272;48.188;9.964;2023-07-30T07:47:38;5.40;;;1.93;;
29246;SDS011;16272;48.188;9.964;2023-07-30T07:50:03;5.70;;;2.07;;
29246;SDS011;16272;48.188;9.964;2023-07-30T07:52:28;5.60;;;2.03;;
29246;SDS011;16272;48.188;9.964;2023-07-30T07:54:54;6.23;;;2.10;;
29246;SDS011;16272;48.188;9.964;2023-07-30T07:57:19;6.20;;;2.13;;
29246;SDS011;16272;48.188;9.964;2023-07-30T07:59:44;5.60;;;2.03;;
29246;SDS011;16272;48.188;9.964;2023-07-30T08:02:11;5.37;;;1.80;;
29246;SDS011;16272;48.188;9.964;2023-07-30T08:04:37;5.60;;;1.80;;
29246;SDS011;16272;48.188;9.964;2023-07-30T08:07:02;5.40;;;1.95;;
29246;SDS011;16272;48.188;9.964;2023-07-30T08:09:28;5.20;;;1.80;;
29246;SDS011;16272;48.188;9.964;2023-07-30T08:11:54;5.25;;;1.88;;
29246;SDS011;16272;48.188;9.964;2023-07-30T08:14:19;5.30;;;2.07;;
29246;SDS011;16272;48.188;9.964;2023-07-30T08:16:45;5.77;;;2.00;;
29246;SDS011;16272;48.188;9.964;2023-07-30T08:19:10;5.47;;;1.87;;
29246;SDS011;16272;48.188;9.964;2023-07-30T08:21:35;5.13;;;2.00;;
29246;SDS011;16272;48.188;9.964;2023-07-30T08:24:01;5.20;;;1.90;;
29246;SDS011;16272;48.188;9.964;2023-07-30T08:26:26;7.07;;;2.03;;
29246;SDS011;16272;48.188;9.964;2023-07-30T08:28:51;5.57;;;1.97;;
29246;SDS011;16272;48.188;9.964;2023-07-30T08:31:17;5.50;;;2.20;;
29246;SDS011;16272;48.188;9.964;2023-07-30T08:33:42;5.70;;;1.70;;
29246;SDS011;16272;48.188;9.964;2023-07-30T08:36:07;5.43;;;2.27;;
29246;SDS011;16272;48.188;9.964;2023-07-30T08:38:33;5.40;;;2.00;;
29246;SDS011;16272;48.188;9.964;2023-07-30T08:40:58;5.60;;;2.10;;
29246;SDS011;16272;48.188;9.964;2023-07-30T08:43:23;7.53;;;1.97;;
29246;SDS011;16272;48.188;9.964;2023-07-30T08:45:49;5.20;;;2.13;;
29246;SDS011;16272;48.188;9.964;2023-07-30T08:48:14;6.10;;;2.13;;
29246;SDS011;16272;48.188;9.964;2023-07-30T08:50:39;5.60;;;2.07;;
29246;SDS011;16272;48.188;9.964;2023-07-30T08:53:06;5.20;;;1.92;;
29246;SDS011;16272;48.188;9.964;2023-07-30T08:55:33;5.50;;;2.30;;
29246;SDS011;16272;48.188;9.964;2023-07-30T08:57:59;5.80;;;2.17;;
29246;SDS011;16272;48.188;9.964;2023-07-30T09:00:26;5.25;;;1.77;;
29246;SDS011;16272;48.188;9.964;2023-07-30T09:02:58;7.23;;;2.00;;
29246;SDS011;16272;48.188;9.964;2023-07-30T09:05:25;5.53;;;2.30;;
29246;SDS011;16272;48.188;9.964;2023-07-30T09:07:53;5.53;;;2.58;;
29246;SDS011;16272;48.188;9.964;2023-07-30T09:10:18;6.30;;;2.03;;
29246;SDS011;16272;48.188;9.964;2023-07-30T09:12:44;5.82;;;2.30;;
29246;SDS011;16272;48.188;9.964;2023-07-30T09:15:09;6.10;;;2.30;;
29246;SDS011;16272;48.188;9.964;2023-07-30T09:17:35;5.47;;;2.10;;
29246;SDS011;16272;48.188;9.964;2023-07-30T09:20:01;6.07;;;2.10;;
29246;SDS011;16272;48.188;9.964;2023-07-30T09:22:29;5.68;;;2.42;;
29246;SDS011;16272;48.188;9.964;2023-07-30T09:24:57;5.97;;;1.73;;
29246;SDS011;16272;48.188;9.964;2023-07-30T09:27:24;5.55;;;1.90;;
29246;SDS011;16272;48.188;9.964;2023-07-30T09:29:53;5.60;;;2.38;;
29246;SDS011;16272;48.188;9.964;2023-07-30T09:32:29;5.57;;;2.10;;
29246;SDS011;16272;48.188;9.964;2023-07-30T09:34:56;5.65;;;2.40;;
29246;SDS011;16272;48.188;9.964;2023-07-30T09:37:33;6.03;;;2.30;;
29246;SDS011;16272;48.188;9.964;2023-07-30T09:40:02;5.60;;;2.20;;
29246;SDS011;16272;48.188;9.964;2023-07-30T09:42:29;5.40;;;2.30;;
29246;SDS011;16272;48.188;9.964;2023-07-30T09:44:58;5.43;;;1.80;;
29246;SDS011;16272;48.188;9.964;2023-07-30T09:47:25;6.25;;;1.98;;
29246;SDS011;16272;48.188;9.964;2023-07-30T09:49:51;5.72;;;2.40;;
29246;SDS011;16272;48.188;9.964;2023-07-30T09:52:18;10.02;;;2.10;;
29246;SDS011;16272;48.188;9.964;2023-07-30T09:54:44;5.22;;;1.88;;
29246;SDS011;16272;48.188;9.964;2023-07-30T09:57:10;6.07;;;1.67;;
29246;SDS011;16272;48.188;9.964;2023-07-30T09:59:35;5.00;;;1.77;;
29246;SDS011;16272;48.188;9.964;2023-07-30T10:02:00;5.73;;;1.80;;
29246;SDS011;16272;48.188;9.964;2023-07-30T10:04:26;5.80;;;1.83;;
29246;SDS011;16272;48.188;9.964;2023-07-30T10:06:55;5.20;;;1.80;;
29246;SDS011;16272;48.188;9.964;2023-07-30T10:09:30;5.50;;;2.10;;
29246;SDS011;16272;48.188;9.964;2023-07-30T10:11:58;5.50;;;1.98;;
29246;SDS011;16272;48.188;9.964;2023-07-30T10:14:26;5.53;;;1.90;;
29246;SDS011;16272;48.188;9.964;2023-07-30T10:16:53;4.75;;;1.80;;
29246;SDS011;16272;48.188;9.964;2023-07-30T10:19:25;6.72;;;2.40;;
29246;SDS011;16272;48.188;9.964;2023-07-30T10:21:51;5.57;;;1.97;;
29246;SDS011;16272;48.188;9.964;2023-07-30T10:24:18;5.40;;;1.77;;
29246;SDS011;16272;48.188;9.964;2023-07-30T10:26:44;5.10;;;1.93;;
29246;SDS011;16272;48.188;9.964;2023-07-30T10:29:18;5.63;;;1.90;;
29246;SDS011;16272;48.188;9.964;2023-07-30T10:31:52;5.82;;;2.30;;
29246;SDS011;16272;48.188;9.964;2023-07-30T10:34:23;5.55;;;1.98;;
29246;SDS011;16272;48.188;9.964;2023-07-30T10:36:52;5.57;;;1.88;;
29246;SDS011;16272;48.188;9.964;2023-07-30T10:39:21;5.82;;;1.92;;
29246;SDS011;16272;48.188;9.964;2023-07-30T10:41:51;5.70;;;2.20;;
29246;SDS011;16272;48.188;9.964;2023-07-30T10:44:22;5.50;;;1.80;;
29246;SDS011;16272;48.188;9.964;2023-07-30T10:46:58;5.80;;;1.92;;
29246;SDS011;16272;48.188;9.964;2023-07-30T10:49:24;5.30;;;1.90;;
29246;SDS011;16272;48.188;9.964;2023-07-30T10:51:53;6.10;;;2.33;;
29246;SDS011;16272;48.188;9.964;2023-07-30T10:54:24;6.30;;;1.90;;
29246;SDS011;16272;48.188;9.964;2023-07-30T10:56:50;6.50;;;2.08;;
29246;SDS011;16272;48.188;9.964;2023-07-30T10:59:16;5.63;;;1.70;;
29246;SDS011;16272;48.188;9.964;2023-07-30T11:01:43;5.72;;;2.00;;
29246;SDS011;16272;48.188;9.964;2023-07-30T11:04:13;5.88;;;2.20;;
29246;SDS011;16272;48.188;9.964;2023-07-30T11:06:44;5.60;;;2.10;;
29246;SDS011;16272;48.188;9.964;2023-07-30T11:09:18;5.30;;;2.10;;
29246;SDS011;16272;48.188;9.964;2023-07-30T11:11:45;5.30;;;1.87;;
29246;SDS011;16272;48.188;9.964;2023-07-30T11:14:14;5.43;;;1.60;;
29246;SDS011;16272;48.188;9.964;2023-07-30T11:16:46;5.27;;;2.10;;
29246;SDS011;16272;48.188;9.964;2023-07-30T11:19:14;6.38;;;1.95;;
29246;SDS011;16272;48.188;9.964;2023-07-30T11:21:57;5.80;;;1.93;;
29246;SDS011;16272;48.188;9.964;2023-07-30T11:24:33;5.53;;;1.88;;
29246;SDS011;16272;48.188;9.964;2023-07-30T11:26:59;6.18;;;1.80;;
29246;SDS011;16272;48.188;9.964;2023-07-30T11:29:26;5.78;;;1.85;;
29246;SDS011;16272;48.188;9.964;2023-07-30T11:31:51;5.43;;;2.00;;
29246;SDS011;16272;48.188;9.964;2023-07-30T11:34:21;5.03;;;2.00;;
29246;SDS011;16272;48.188;9.964;2023-07-30T11:36:46;5.37;;;1.97;;
29246;SDS011;16272;48.188;9.964;2023-07-30T11:39:12;5.23;;;1.57;;
29246;SDS011;16272;48.188;9.964;2023-07-30T11:41:37;5.30;;;1.83;;
29246;SDS011;16272;48.188;9.964;2023-07-30T11:44:03;5.65;;;1.75;;
29246;SDS011;16272;48.188;9.964;2023-07-30T11:46:29;6.30;;;1.67;;
29246;SDS011;16272;48.188;9.964;2023-07-30T11:49:10;5.82;;;1.50;;
29246;SDS011;16272;48.188;9.964;2023-07-30T11:51:39;5.20;;;1.43;;
29246;SDS011;16272;48.188;9.964;2023-07-30T11:54:04;5.80;;;2.08;;
29246;SDS011;16272;48.188;9.964;2023-07-30T11:56:32;8.13;;;1.67;;
29246;SDS011;16272;48.188;9.964;2023-07-30T11:59:01;5.00;;;1.40;;
29246;SDS011;16272;48.188;9.964;2023-07-30T12:01:30;5.17;;;1.57;;
29246;SDS011;16272;48.188;9.964;2023-07-30T12:03:59;5.68;;;1.80;;
29246;SDS011;16272;48.188;9.964;2023-07-30T12:06:38;6.38;;;2.05;;
29246;SDS011;16272;48.188;9.964;2023-07-30T12:09:14;5.18;;;1.80;;
29246;SDS011;16272;48.188;9.964;2023-07-30T12:11:46;5.35;;;2.03;;
29246;SDS011;16272;48.188;9.964;2023-07-30T12:14:18;5.10;;;1.40;;
29246;SDS011;16272;48.188;9.964;2023-07-30T12:16:45;5.32;;;1.80;;
29246;SDS011;16272;48.188;9.964;2023-07-30T12:19:10;5.45;;;2.10;;
29246;SDS011;16272;48.188;9.964;2023-07-30T12:21:36;4.87;;;1.73;;
29246;SDS011;16272;48.188;9.964;2023-07-30T12:24:01;7.73;;;2.57;;
29246;SDS011;16272;48.188;9.964;2023-07-30T12:26:28;5.65;;;1.80;;
29246;SDS011;16272;48.188;9.964;2023-07-30T12:28:53;5.47;;;1.83;;
29246;SDS011;16272;48.188;9.964;2023-07-30T12:31:19;6.07;;;2.00;;
29246;SDS011;16272;48.188;9.964;2023-07-30T12:33:44;5.73;;;1.87;;
29246;SDS011;16272;48.188;9.964;2023-07-30T12:36:09;5.20;;;1.70;;
29246;SDS011;16272;48.188;9.964;2023-07-30T12:38:35;5.83;;;1.80;;
29246;SDS011;16272;48.188;9.964;2023-07-30T12:41:00;5.50;;;1.83;;
29246;SDS011;16272;48.188;9.964;2023-07-30T12:43:25;5.13;;;1.70;;
29246;SDS011;16272;48.188;9.964;2023-07-30T12:45:50;5.47;;;2.40;;
29246;SDS011;16272;48.188;9.964;2023-07-30T12:48:16;5.53;;;2.00;;
29246;SDS011;16272;48.188;9.964;2023-07-30T12:50:41;5.97;;;1.93;;
29246;SDS011;16272;48.188;9.964;2023-07-30T12:53:06;5.57;;;1.88;;
29246;SDS011;16272;48.188;9.964;2023-07-30T12:55:32;5.53;;;1.90;;
29246;SDS011;16272;48.188;9.964;2023-07-30T12:57:57;5.90;;;1.93;;
29246;SDS011;16272;48.188;9.964;2023-07-30T13:00:23;5.70;;;2.10;;
29246;SDS011;16272;48.188;9.964;2023-07-30T13:02:49;5.87;;;2.10;;
29246;SDS011;16272;48.188;9.964;2023-07-30T13:05:17;5.35;;;2.08;;
29246;SDS011;16272;48.188;9.964;2023-07-30T13:07:42;5.67;;;1.97;;
29246;SDS011;16272;48.188;9.964;2023-07-30T13:10:08;6.03;;;2.00;;
29246;SDS011;16272;48.188;9.964;2023-07-30T13:12:34;5.80;;;2.30;;
29246;SDS011;16272;48.188;9.964;2023-07-30T13:15:00;5.50;;;2.30;;
29246;SDS011;16272;48.188;9.964;2023-07-30T13:17:26;6.50;;;2.00;;
29246;SDS011;16272;48.188;9.964;2023-07-30T13:19:52;5.65;;;1.98;;
29246;SDS011;16272;48.188;9.964;2023-07-30T13:22:17;5.97;;;2.17;;
29246;SDS011;16272;48.188;9.964;2023-07-30T13:24:42;6.27;;;2.00;;
29246;SDS011;16272;48.188;9.964;2023-07-30T13:27:08;6.53;;;2.40;;
29246;SDS011;16272;48.188;9.964;2023-07-30T13:29:33;5.63;;;2.07;;
29246;SDS011;16272;48.188;9.964;2023-07-30T13:31:58;5.80;;;1.87;;
29246;SDS011;16272;48.188;9.964;2023-07-30T13:34:24;5.77;;;1.97;;
29246;SDS011;16272;48.188;9.964;2023-07-30T13:36:49;5.40;;;1.90;;
29246;SDS011;16272;48.188;9.964;2023-07-30T13:39:14;6.32;;;2.20;;
29246;SDS011;16272;48.188;9.964;2023-07-30T13:41:40;6.50;;;2.33;;
29246;SDS011;16272;48.188;9.964;2023-07-30T13:44:05;5.70;;;1.97;;
29246;SDS011;16272;48.188;9.964;2023-07-30T13:46:30;5.70;;;1.63;;
29246;SDS011;16272;48.188;9.964;2023-07-30T13:48:56;6.10;;;2.00;;
29246;SDS011;16272;48.188;9.964;2023-07-30T13:51:21;5.67;;;2.27;;
29246;SDS011;16272;48.188;9.964;2023-07-30T13:53:46;6.13;;;2.47;;
29246;SDS011;16272;48.188;9.964;2023-07-30T13:56:12;5.73;;;2.07;;
29246;SDS011;16272;48.188;9.964;2023-07-30T13:58:37;5.93;;;1.97;;
29246;SDS011;16272;48.188;9.964;2023-07-30T14:01:04;5.40;;;1.95;;
29246;SDS011;16272;48.188;9.964;2023-07-30T14:03:30;5.57;;;1.90;;
29246;SDS011;16272;48.188;9.964;2023-07-30T14:05:55;5.40;;;1.90;;
29246;SDS011;16272;48.188;9.964;2023-07-30T14:08:20;5.70;;;1.60;;
29246;SDS011;16272;48.188;9.964;2023-07-30T14:10:46;5.90;;;2.10;;
29246;SDS011;16272;48.188;9.964;2023-07-30T14:13:11;5.63;;;1.90;;
29246;SDS011;16272;48.188;9.964;2023-07-30T14:15:36;6.35;;;1.80;;
29246;SDS011;16272;48.188;9.964;2023-07-30T14:18:01;7.40;;;2.20;;
29246;SDS011;16272;48.188;9.964;2023-07-30T14:20:27;6.03;;;2.00;;
29246;SDS011;16272;48.188;9.964;2023-07-30T14:22:52;5.70;;;2.00;;
29246;SDS011;16272;48.188;9.964;2023-07-30T14:25:19;5.90;;;1.73;;
29246;SDS011;16272;48.188;9.964;2023-07-30T14:27:44;6.00;;;2.10;;
29246;SDS011;16272;48.188;9.964;2023-07-30T14:30:10;6.00;;;2.20;;
29246;SDS011;16272;48.188;9.964;2023-07-30T14:32:35;5.82;;;2.00;;
29246;SDS011;16272;48.188;9.964;2023-07-30T14:35:01;5.97;;;1.90;;
29246;SDS011;16272;48.188;9.964;2023-07-30T14:37:26;5.43;;;1.73;;
29246;SDS011;16272;48.188;9.964;2023-07-30T14:39:51;6.13;;;2.10;;
29246;SDS011;16272;48.188;9.964;2023-07-30T14:42:16;6.00;;;1.90;;